Time;durP1;ratioP1;P1;durP2;ratioP2;P2;SDS_P1;SDS_P2;PMS_P1;PMS_P2;Temp;Humidity;BMP_temperature;BMP_pressure;BME280_temperature;BME280_humidity;BME280_pressure;Samples;Min_cycle;Max_cycle;Signal;HPM_P1;HPM_P2
2022/06/24 00:00:07;;;;;;;;;;;;;;;24.94;62.48;99470.75;2067472;28;20351;-48
2022/06/24 00:01:14;;;;;;;;;;;;;;;24.94;62.89;99461.69;2066470;28;19963;-49
2022/06/24 00:02:14;;;;;;;;;;;;;;;24.94;63.69;99464.44;2065852;28;19917;-47
2022/06/24 00:03:18;;;;;;;;;;;;;;;24.93;64.13;99463.69;2068025;28;19948;-47
2022/06/24 00:04:22;;;;;;;;;;;;;;;24.93;63.56;99457.38;2059658;28;19968;-51
2022/06/24 00:05:23;;;;;;;;;;;;;;;24.93;63.08;99451.84;2067067;28;19921;-48
2022/06/24 00:06:28;;;;;;;;;;;;;;;24.91;63.03;99452.28;2068566;28;20394;-48
2022/06/24 00:07:28;;;;;;;;;;;;;;;24.91;62.98;99451.53;2068587;28;19916;-49
2022/06/24 00:08:28;;;;;;;;;;;;;;;24.93;62.47;99458.16;2067616;28;19928;-48
2022/06/24 00:09:29;;;;;;;;;;;;;;;24.93;62.40;99455.38;2069456;28;19924;-48
2022/06/24 00:10:32;;;;;;;;;;;;;;;24.92;62.38;99445.53;2065564;28;19917;-48
2022/06/24 00:11:34;;;;;;;;;;;;;;;24.93;62.64;99440.75;2062633;28;20019;-51
2022/06/24 00:12:35;;;;;;;;;;;;;;;24.92;62.46;99442.75;2068809;28;19936;-48
2022/06/24 00:13:39;;;;;;;;;;;;;;;24.92;62.98;99442.75;2068089;28;19920;-50
2022/06/24 00:14:40;;;;;;;;;;;;;;;24.91;62.95;99440.44;2068219;28;19921;-48
2022/06/24 00:15:41;;;;;;;;;;;;;;;24.91;63.33;99429.38;2066895;28;19921;-49
2022/06/24 00:16:58;;;;;;;;;;;;;;;24.89;63.25;99438.16;2067267;28;19916;-48
2022/06/24 00:18:10;;;;;;;;;;;;;;;24.91;62.34;99434.91;2068226;28;19921;-48
2022/06/24 00:19:11;;;;;;;;;;;;;;;24.89;61.68;99452.00;2064327;28;19917;-48
2022/06/24 00:20:16;;;;;;;;;;;;;;;24.88;61.13;99461.56;2070519;28;20140;-48
2022/06/24 00:21:16;;;;;;;;;;;;;;;24.86;60.48;99466.75;2066438;28;19962;-51
2022/06/24 00:22:16;;;;;;;;;;;;;;;24.83;60.52;99470.47;2059971;28;20379;-50
2022/06/24 00:23:20;;;;;;;;;;;;;;;24.76;60.14;99474.31;2062645;28;19909;-50
2022/06/24 00:24:21;;;;;;;;;;;;;;;24.75;60.27;99472.78;2069002;28;20670;-50
2022/06/24 00:25:22;;;;;;;;;;;;;;;24.76;60.33;99476.31;2067724;28;20332;-48
2022/06/24 00:26:35;;;;;;;;;;;;;;;24.71;59.72;99469.41;2065211;28;19917;-48
2022/06/24 00:27:36;;;;;;;;;;;;;;;24.72;60.06;99459.13;2064743;28;20028;-48
2022/06/24 00:28:37;;;;;;;;;;;;;;;24.69;59.79;99462.84;2067739;28;19928;-48
2022/06/24 00:29:37;;;;;;;;;;;;;;;24.68;59.75;99461.28;2063288;28;19916;-48
2022/06/24 00:30:50;;;;;;;;;;;;;;;24.69;60.21;99460.81;2062486;28;19923;-48
2022/06/24 00:32:07;;;;;;;;;;;;;;;24.68;59.77;99466.81;2067432;28;19921;-48
2022/06/24 00:33:11;;;;;;;;;;;;;;;24.67;59.53;99465.28;2068136;28;20236;-48
2022/06/24 00:34:24;;;;;;;;;;;;;;;24.67;59.67;99465.28;2067898;28;20175;-51
2022/06/24 00:35:24;;;;;;;;;;;;;;;24.64;59.30;99469.00;2068761;28;20071;-48
2022/06/24 00:36:25;;;;;;;;;;;;;;;24.61;59.38;99465.16;2075705;28;20073;-48
2022/06/24 00:37:29;;;;;;;;;;;;;;;24.63;59.44;99467.47;2075495;28;19951;-49
2022/06/24 00:38:30;;;;;;;;;;;;;;;24.63;59.54;99468.22;2068255;28;20346;-48
2022/06/24 00:39:34;;;;;;;;;;;;;;;24.64;59.50;99469.75;2066588;28;19956;-50
2022/06/24 00:40:35;;;;;;;;;;;;;;;24.64;59.92;99458.66;2067865;28;20452;-48
2022/06/24 00:41:35;;;;;;;;;;;;;;;24.64;59.87;99460.69;2064689;28;19944;-48
2022/06/24 00:42:37;;;;;;;;;;;;;;;24.65;60.33;99454.66;2066646;28;19975;-48
2022/06/24 00:43:37;;;;;;;;;;;;;;;24.67;60.31;99456.97;2063054;28;20008;-50
2022/06/24 00:44:48;;;;;;;;;;;;;;;24.66;60.17;99455.44;2061582;28;19909;-48
2022/06/24 00:45:51;;;;;;;;;;;;;;;24.66;60.31;99456.22;2066815;28;20300;-48
2022/06/24 00:46:52;;;;;;;;;;;;;;;24.66;60.84;99469.28;2068171;28;20025;-48
2022/06/24 00:47:54;;;;;;;;;;;;;;;24.67;60.08;99473.59;2068192;28;19924;-47
2022/06/24 00:48:56;;;;;;;;;;;;;;;24.66;59.27;99478.34;2068856;28;19955;-48
2022/06/24 00:49:58;;;;;;;;;;;;;;;24.64;59.45;99480.81;2063061;28;19917;-51
2022/06/24 00:50:58;;;;;;;;;;;;;;;24.64;59.62;99477.31;2067932;28;20348;-51
2022/06/24 00:52:05;;;;;;;;;;;;;;;24.65;59.74;99482.34;2064150;28;19917;-48
2022/06/24 00:53:05;;;;;;;;;;;;;;;24.65;59.69;99479.59;2066881;28;19917;-50
2022/06/24 00:54:07;;;;;;;;;;;;;;;24.64;59.48;99478.03;2069303;28;20318;-49
2022/06/24 00:55:08;;;;;;;;;;;;;;;24.65;59.67;99478.81;2062645;28;19925;-48
2022/06/24 00:56:12;;;;;;;;;;;;;;;24.62;59.87;99471.44;2065595;28;19922;-49
2022/06/24 00:57:13;;;;;;;;;;;;;;;24.64;59.47;99469.00;2064892;28;19913;-48
2022/06/24 00:58:14;;;;;;;;;;;;;;;24.60;59.47;99473.91;2064571;28;19909;-47
2022/06/24 00:59:15;;;;;;;;;;;;;;;24.60;59.63;99468.38;2067914;28;20342;-51
2022/06/24 01:00:16;;;;;;;;;;;;;;;24.58;59.46;99476.38;2063025;28;19921;-50
2022/06/24 01:01:16;;;;;;;;;;;;;;;24.57;59.57;99463.78;2067716;28;19921;-50
2022/06/24 01:02:17;;;;;;;;;;;;;;;24.59;59.98;99464.84;2068416;28;19967;-48
2022/06/24 01:03:17;;;;;;;;;;;;;;;24.59;59.28;99467.59;2067954;28;19924;-51
2022/06/24 01:04:18;;;;;;;;;;;;;;;24.60;59.50;99468.38;2066405;28;19921;-47
2022/06/24 01:05:18;;;;;;;;;;;;;;;24.60;59.56;99466.38;2068129;28;19956;-48
2022/06/24 01:06:18;;;;;;;;;;;;;;;24.57;60.05;99463.78;2066768;28;19953;-51
2022/06/24 01:07:19;;;;;;;;;;;;;;;24.59;59.63;99466.81;2066733;28;20002;-48
2022/06/24 01:08:19;;;;;;;;;;;;;;;24.57;59.86;99464.53;2067668;28;20339;-50
2022/06/24 01:09:20;;;;;;;;;;;;;;;24.58;59.61;99465.31;2068983;28;19916;-48
2022/06/24 01:10:20;;;;;;;;;;;;;;;24.58;60.02;99462.53;2067411;28;19945;-48
2022/06/24 01:11:23;;;;;;;;;;;;;;;24.58;59.64;99459.78;2067418;28;20137;-47
2022/06/24 01:12:24;;;;;;;;;;;;;;;24.57;59.32;99464.53;2065657;28;19926;-48
2022/06/24 01:13:24;;;;;;;;;;;;;;;24.59;59.17;99466.81;2067651;28;20328;-56
2022/06/24 01:14:25;;;;;;;;;;;;;;;24.57;59.16;99470.09;2066595;28;20308;-48
2022/06/24 01:15:25;;;;;;;;;;;;;;;24.57;58.76;99461.00;2068613;28;19924;-48
2022/06/24 01:16:26;;;;;;;;;;;;;;;24.58;59.08;99457.78;2067570;28;20332;-48
2022/06/24 01:17:26;;;;;;;;;;;;;;;24.58;59.35;99457.00;2067074;28;19960;-47
2022/06/24 01:18:26;;;;;;;;;;;;;;;24.57;59.27;99452.69;2062414;28;19921;-48
2022/06/24 01:19:27;;;;;;;;;;;;;;;24.56;59.47;99460.25;2064735;28;19917;-48
2022/06/24 01:20:28;;;;;;;;;;;;;;;24.57;59.41;99447.16;2068201;28;20014;-49
2022/06/24 01:21:37;;;;;;;;;;;;;;;24.56;58.95;99451.94;2066885;28;19917;-48
2022/06/24 01:22:38;;;;;;;;;;;;;;;24.55;59.21;99455.94;2067262;28;19956;-48
2022/06/24 01:23:38;;;;;;;;;;;;;;;24.57;59.37;99447.16;2062654;28;19956;-48
2022/06/24 01:24:38;;;;;;;;;;;;;;;24.56;59.20;99456.69;2065596;28;20076;-47
2022/06/24 01:25:39;;;;;;;;;;;;;;;24.57;59.44;99453.47;2070525;28;19922;-48
2022/06/24 01:26:40;;;;;;;;;;;;;;;24.55;59.01;99453.16;2075667;28;19938;-48
2022/06/24 01:27:40;;;;;;;;;;;;;;;24.56;59.18;99446.41;2068018;28;20124;-48
2022/06/24 01:28:41;;;;;;;;;;;;;;;24.55;59.05;99444.09;2062820;28;19938;-48
2022/06/24 01:29:41;;;;;;;;;;;;;;;24.56;59.00;99451.16;2067946;28;20562;-51
2022/06/24 01:30:41;;;;;;;;;;;;;;;24.53;58.89;99441.03;2068338;28;20312;-48
2022/06/24 01:31:42;;;;;;;;;;;;;;;24.54;58.78;99450.84;2064517;28;19917;-48
2022/06/24 01:32:43;;;;;;;;;;;;;;;24.54;58.66;99448.06;2066420;28;20315;-49
2022/06/24 01:33:43;;;;;;;;;;;;;;;24.54;58.47;99450.84;2063281;28;20316;-48
2022/06/24 01:34:44;;;;;;;;;;;;;;;24.52;58.32;99456.09;2066020;28;19956;-51
2022/06/24 01:35:44;;;;;;;;;;;;;;;24.50;58.58;99464.09;2066423;28;19917;-48
2022/06/24 01:36:45;;;;;;;;;;;;;;;24.50;58.13;99459.31;2067821;28;19909;-48
2022/06/24 01:37:46;;;;;;;;;;;;;;;24.50;58.54;99458.56;2066333;28;19913;-47
2022/06/24 01:38:47;;;;;;;;;;;;;;;24.50;58.74;99453.00;2068369;28;20060;-49
2022/06/24 01:39:47;;;;;;;;;;;;;;;24.51;58.56;99443.50;2066662;28;20036;-47
2022/06/24 01:40:48;;;;;;;;;;;;;;;24.49;58.71;99441.19;2069555;28;19951;-48
2022/06/24 01:41:51;;;;;;;;;;;;;;;24.49;58.92;99434.88;2065975;28;19940;-48
2022/06/24 01:42:51;;;;;;;;;;;;;;;24.49;58.69;99435.63;2069998;28;19909;-50
2022/06/24 01:43:51;;;;;;;;;;;;;;;24.49;58.63;99434.88;2068066;28;20267;-50
2022/06/24 01:44:52;;;;;;;;;;;;;;;24.48;58.76;99439.63;2068697;28;19996;-47
2022/06/24 01:45:52;;;;;;;;;;;;;;;24.48;58.54;99445.16;2064547;28;19925;-47
2022/06/24 01:46:52;;;;;;;;;;;;;;;24.48;58.45;99447.19;2066357;28;19933;-47
2022/06/24 01:47:52;;;;;;;;;;;;;;;24.47;58.56;99446.44;2070216;28;20233;-48
2022/06/24 01:48:53;;;;;;;;;;;;;;;24.46;58.67;99444.13;2065666;28;19944;-48
2022/06/24 01:49:53;;;;;;;;;;;;;;;24.46;58.69;99442.13;2064386;28;19944;-48
2022/06/24 01:50:54;;;;;;;;;;;;;;;24.46;58.73;99438.59;2069550;28;19917;-50
2022/06/24 01:51:56;;;;;;;;;;;;;;;24.45;58.86;99439.81;2068619;28;19979;-49
2022/06/24 01:52:56;;;;;;;;;;;;;;;24.44;58.56;99443.81;2070321;28;20267;-48
2022/06/24 01:53:57;;;;;;;;;;;;;;;24.45;58.56;99442.56;2067849;28;19967;-48
2022/06/24 01:54:57;;;;;;;;;;;;;;;24.43;58.58;99437.50;2067298;28;20422;-49
2022/06/24 01:55:57;;;;;;;;;;;;;;;24.43;58.92;99445.06;2067770;28;19967;-54
2022/06/24 01:56:58;;;;;;;;;;;;;;;24.43;59.17;99440.25;2066028;28;19917;-48
2022/06/24 01:57:58;;;;;;;;;;;;;;;24.42;58.91;99435.22;2064410;28;19924;-47
2022/06/24 01:58:59;;;;;;;;;;;;;;;24.42;59.00;99429.69;2068901;28;19925;-48
2022/06/24 02:00:00;;;;;;;;;;;;;;;24.39;58.72;99432.13;2068815;28;19943;-48
2022/06/24 02:01:00;;;;;;;;;;;;;;;24.39;58.46;99425.81;2069733;28;19960;-49
2022/06/24 02:02:00;;;;;;;;;;;;;;;24.41;58.76;99423.38;2068285;28;19921;-48
2022/06/24 02:03:04;;;;;;;;;;;;;;;24.40;58.58;99417.06;2069961;28;20035;-48
2022/06/24 02:04:04;;;;;;;;;;;;;;;24.42;58.70;99418.59;2069959;28;20575;-50
2022/06/24 02:05:05;;;;;;;;;;;;;;;24.41;59.07;99401.22;2066910;28;20480;-50
2022/06/24 02:06:09;;;;;;;;;;;;;;;24.40;59.05;99394.16;2070752;28;19948;-48
2022/06/24 02:07:10;;;;;;;;;;;;;;;24.42;58.84;99391.69;2068086;28;19917;-48
2022/06/24 02:08:10;;;;;;;;;;;;;;;24.41;58.84;99390.16;2067614;28;19999;-48
2022/06/24 02:09:10;;;;;;;;;;;;;;;24.40;58.88;99377.56;2070182;28;19920;-48
2022/06/24 02:14:09;;;;;;;;;;;;;;;24.37;58.47;99397.88;2063877;28;20354;-48
2022/06/24 02:15:09;;;;;;;;;;;;;;;24.39;59.08;99404.47;2068965;28;19928;-48
2022/06/24 02:16:10;;;;;;;;;;;;;;;24.38;59.25;99397.38;2068339;28;19924;-49
2022/06/24 02:17:10;;;;;;;;;;;;;;;24.38;59.38;99396.63;2069076;28;20736;-51
2022/06/24 02:18:11;;;;;;;;;;;;;;;24.38;59.23;99394.63;2068165;28;19928;-48
2022/06/24 02:19:11;;;;;;;;;;;;;;;24.40;59.12;99400.47;2068402;28;19960;-49
2022/06/24 02:20:11;;;;;;;;;;;;;;;24.39;59.13;99396.16;2070020;28;19919;-48
2022/06/24 02:21:12;;;;;;;;;;;;;;;24.40;58.91;99402.47;2066568;28;19944;-50
2022/06/24 02:22:13;;;;;;;;;;;;;;;24.39;58.91;99398.91;2069141;28;19964;-49
2022/06/24 02:23:13;;;;;;;;;;;;;;;24.40;59.10;99383.09;2067357;28;19909;-51
2022/06/24 02:24:13;;;;;;;;;;;;;;;24.38;59.48;99385.53;2066036;28;20402;-50
2022/06/24 02:25:14;;;;;;;;;;;;;;;24.36;59.81;99363.88;2071235;28;19917;-47
2022/06/24 02:26:15;;;;;;;;;;;;;;;24.35;60.01;99361.56;2064419;28;19916;-48
2022/06/24 02:27:15;;;;;;;;;;;;;;;24.33;60.33;99362.03;2071130;28;19956;-50
2022/06/24 02:28:15;;;;;;;;;;;;;;;24.33;60.46;99364.81;2068500;28;20247;-48
2022/06/24 02:29:16;;;;;;;;;;;;;;;24.36;60.02;99360.34;2066831;28;20667;-50
2022/06/24 02:30:16;;;;;;;;;;;;;;;24.38;59.92;99355.88;2070148;28;20009;-48
2022/06/24 02:31:17;;;;;;;;;;;;;;;24.38;59.62;99352.31;2069584;28;19995;-50
2022/06/24 02:32:17;;;;;;;;;;;;;;;24.38;59.93;99353.09;2068541;28;20339;-47
2022/06/24 02:33:17;;;;;;;;;;;;;;;24.38;59.92;99357.88;2071457;28;20426;-48
2022/06/24 02:34:18;;;;;;;;;;;;;;;24.38;60.04;99344.03;2067581;28;19916;-48
2022/06/24 02:35:18;;;;;;;;;;;;;;;24.38;59.85;99347.56;2068212;28;19913;-48
2022/06/24 02:36:19;;;;;;;;;;;;;;;24.39;59.89;99345.56;2069344;28;19964;-49
2022/06/24 02:37:19;;;;;;;;;;;;;;;24.39;60.03;99343.56;2065667;28;19909;-48
2022/06/24 02:38:20;;;;;;;;;;;;;;;24.38;59.97;99342.03;2062707;28;19921;-48
2022/06/24 02:39:20;;;;;;;;;;;;;;;24.38;59.82;99341.25;2069297;28;19959;-49
2022/06/24 02:41:39;;;;;;;;;;;;;;;24.36;60.17;99333.44;2069031;28;19917;-47
2022/06/24 02:42:40;;;;;;;;;;;;;;;24.33;60.41;99333.59;2076336;28;19916;-48
2022/06/24 02:43:40;;;;;;;;;;;;;;;24.33;60.57;99328.06;2075857;28;20008;-48
2022/06/24 02:44:40;;;;;;;;;;;;;;;24.32;60.53;99324.53;2068682;28;19917;-50
2022/06/24 02:45:41;;;;;;;;;;;;;;;24.33;60.78;99328.81;2066717;28;19917;-50
2022/06/24 02:46:42;;;;;;;;;;;;;;;24.33;60.96;99334.34;2069029;28;19917;-48
2022/06/24 02:47:42;;;;;;;;;;;;;;;24.34;61.17;99335.91;2070087;28;19998;-49
2022/06/24 02:48:43;;;;;;;;;;;;;;;24.33;61.44;99345.44;2061283;28;20327;-50
2022/06/24 02:49:43;;;;;;;;;;;;;;;24.34;61.43;99337.91;2060947;28;19909;-49
2022/06/24 02:50:47;;;;;;;;;;;;;;;24.32;61.36;99332.81;2068918;28;20387;-48
2022/06/24 02:51:47;;;;;;;;;;;;;;;24.30;61.43;99324.25;2063234;28;20942;-47
2022/06/24 02:52:48;;;;;;;;;;;;;;;24.33;60.69;99311.44;2068137;28;20204;-47
2022/06/24 02:53:48;;;;;;;;;;;;;;;24.32;61.03;99309.94;2065988;28;19936;-48
2022/06/24 02:54:48;;;;;;;;;;;;;;;24.30;60.89;99296.56;2064908;28;19918;-48
2022/06/24 02:55:49;;;;;;;;;;;;;;;24.31;61.16;99292.56;2068978;28;19968;-51
2022/06/24 02:56:50;;;;;;;;;;;;;;;24.32;61.33;99288.53;2062706;28;19909;-48
2022/06/24 02:57:50;;;;;;;;;;;;;;;24.33;61.05;99295.63;2062554;28;20337;-48
2022/06/24 02:58:50;;;;;;;;;;;;;;;24.33;61.18;99300.38;2067703;28;20490;-48
2022/06/24 02:59:51;;;;;;;;;;;;;;;24.34;60.48;99299.16;2064310;28;19918;-48
2022/06/24 03:00:51;;;;;;;;;;;;;;;24.35;60.47;99295.94;2063487;28;20041;-48
2022/06/24 03:01:52;;;;;;;;;;;;;;;24.36;60.47;99300.22;2065897;28;19909;-48
2022/06/24 03:02:52;;;;;;;;;;;;;;;24.35;60.56;99304.22;2064948;28;19927;-50
2022/06/24 03:03:52;;;;;;;;;;;;;;;24.34;60.80;99302.69;2068921;28;20455;-47
2022/06/24 03:04:53;;;;;;;;;;;;;;;24.34;60.91;99308.22;2067753;28;19917;-48
2022/06/24 03:05:53;;;;;;;;;;;;;;;24.33;61.33;99317.75;2068011;28;20000;-47
2022/06/24 03:06:53;;;;;;;;;;;;;;;24.33;61.21;99311.44;2067513;28;19916;-48
2022/06/24 03:07:54;;;;;;;;;;;;;;;24.33;61.43;99317.00;2065541;28;19917;-48
2022/06/24 03:08:54;;;;;;;;;;;;;;;24.33;61.01;99325.28;2069915;28;19909;-47
2022/06/24 03:09:54;;;;;;;;;;;;;;;24.32;61.17;99324.53;2064902;28;19916;-51
2022/06/24 03:10:55;;;;;;;;;;;;;;;24.32;61.33;99327.28;2067575;28;19917;-49
2022/06/24 03:11:56;;;;;;;;;;;;;;;24.32;61.19;99332.81;2068131;28;19925;-51
2022/06/24 03:12:56;;;;;;;;;;;;;;;24.32;61.33;99348.69;2068738;28;20617;-52
2022/06/24 03:13:57;;;;;;;;;;;;;;;24.33;61.55;99348.19;2069923;28;20396;-50
2022/06/24 03:14:57;;;;;;;;;;;;;;;24.34;61.99;99358.03;2061935;28;19931;-50
2022/06/24 03:15:57;;;;;;;;;;;;;;;24.33;62.22;99380.63;2070935;28;20366;-48
2022/06/24 03:16:58;;;;;;;;;;;;;;;24.34;61.32;99391.25;2069071;28;19917;-50
2022/06/24 03:17:59;;;;;;;;;;;;;;;24.34;60.87;99407.84;2066054;28;20005;-51
2022/06/24 03:18:59;;;;;;;;;;;;;;;24.34;60.49;99434.75;2061503;28;19917;-49
2022/06/24 03:19:59;;;;;;;;;;;;;;;24.34;60.81;99456.91;2066403;28;19997;-50
2022/06/24 03:21:00;;;;;;;;;;;;;;;24.32;60.27;99481.50;2063229;28;19921;-50
2022/06/24 03:22:00;;;;;;;;;;;;;;;24.29;60.51;99496.25;2067728;28;20044;-49
2022/06/24 03:23:00;;;;;;;;;;;;;;;24.25;60.21;99495.66;2066833;28;19925;-47
2022/06/24 03:24:01;;;;;;;;;;;;;;;24.23;60.44;99493.34;2066048;28;19913;-48
2022/06/24 03:25:02;;;;;;;;;;;;;;;24.21;60.35;99504.13;2062719;28;19929;-46
2022/06/24 03:26:02;;;;;;;;;;;;;;;24.16;60.23;99499.19;2064903;28;20336;-48
2022/06/24 03:27:03;;;;;;;;;;;;;;;24.16;60.43;99501.19;2068202;28;19917;-48
2022/06/24 03:28:04;;;;;;;;;;;;;;;24.13;60.26;99500.09;2070227;28;19913;-47
2022/06/24 03:29:04;;;;;;;;;;;;;;;24.12;60.43;99495.00;2068327;28;19956;-48
2022/06/24 03:30:06;;;;;;;;;;;;;;;24.11;60.21;99505.28;2067244;28;19924;-48
2022/06/24 03:31:06;;;;;;;;;;;;;;;24.13;60.31;99502.84;2062229;28;19921;-47
2022/06/24 03:32:07;;;;;;;;;;;;;;;24.09;60.54;99531.91;2066859;28;19948;-51
2022/06/24 03:33:07;;;;;;;;;;;;;;;24.09;60.76;99535.44;2064250;28;20032;-47
2022/06/24 03:34:07;;;;;;;;;;;;;;;24.10;60.73;99541.75;2064221;28;20253;-48
2022/06/24 03:35:08;;;;;;;;;;;;;;;24.10;60.86;99545.28;2066958;28;19925;-48
2022/06/24 03:36:09;;;;;;;;;;;;;;;24.11;60.83;99540.53;2067062;28;19917;-48
2022/06/24 03:37:10;;;;;;;;;;;;;;;24.09;61.26;99527.13;2065629;28;19929;-49
2022/06/24 03:38:10;;;;;;;;;;;;;;;24.01;61.63;99523.13;2063273;28;19970;-48
2022/06/24 03:39:10;;;;;;;;;;;;;;;23.99;61.52;99531.91;2065741;28;19917;-47
2022/06/24 03:40:11;;;;;;;;;;;;;;;24.02;61.68;99527.44;2066576;28;20345;-49
2022/06/24 03:41:11;;;;;;;;;;;;;;;24.02;61.38;99524.66;2063403;28;19909;-49
2022/06/24 03:42:11;;;;;;;;;;;;;;;24.03;61.46;99519.91;2063989;28;19917;-51
2022/06/24 03:43:12;;;;;;;;;;;;;;;24.02;61.46;99516.38;2061618;28;19909;-51
2022/06/24 03:44:12;;;;;;;;;;;;;;;24.06;61.41;99511.44;2063855;28;20316;-51
2022/06/24 03:45:13;;;;;;;;;;;;;;;24.09;61.43;99507.78;2065809;28;20262;-48
2022/06/24 03:46:13;;;;;;;;;;;;;;;24.11;61.65;99504.56;2061306;28;19905;-50
2022/06/24 03:47:13;;;;;;;;;;;;;;;24.11;61.46;99493.50;2064556;28;19909;-48
2022/06/24 03:48:14;;;;;;;;;;;;;;;24.14;61.28;99490.56;2064617;28;19909;-48
2022/06/24 03:49:15;;;;;;;;;;;;;;;24.13;61.66;99479.94;2062634;28;19913;-48
2022/06/24 03:50:16;;;;;;;;;;;;;;;24.12;61.57;99481.94;2063555;28;19913;-49
2022/06/24 03:51:16;;;;;;;;;;;;;;;24.14;61.30;99476.72;2066550;28;20306;-50
2022/06/24 03:52:17;;;;;;;;;;;;;;;24.14;61.47;99476.72;2060830;28;19917;-49
2022/06/24 03:53:18;;;;;;;;;;;;;;;24.13;61.46;99480.72;2067754;28;19921;-49
2022/06/24 03:54:18;;;;;;;;;;;;;;;24.16;61.43;99490.09;2063037;28;19918;-48
2022/06/24 03:55:18;;;;;;;;;;;;;;;24.20;61.08;99497.03;2062543;28;19913;-51
2022/06/24 03:56:19;;;;;;;;;;;;;;;24.20;61.29;99499.03;2067118;28;19921;-50
2022/06/24 03:57:20;;;;;;;;;;;;;;;24.21;61.40;99503.34;2067905;28;19917;-47
2022/06/24 03:58:20;;;;;;;;;;;;;;;24.21;62.43;99498.59;2063155;28;20475;-48
2022/06/24 03:59:21;;;;;;;;;;;;;;;24.20;62.40;99494.28;2062380;28;20382;-50
2022/06/24 04:00:21;;;;;;;;;;;;;;;24.19;62.66;99476.13;2065550;28;20393;-48
2022/06/24 04:01:21;;;;;;;;;;;;;;;24.20;62.93;99471.38;2063172;28;19917;-48
2022/06/24 04:02:23;;;;;;;;;;;;;;;24.18;63.13;99466.28;2063434;28;20427;-48
2022/06/24 04:03:23;;;;;;;;;;;;;;;24.19;62.48;99456.00;2062933;28;19953;-47
2022/06/24 04:04:23;;;;;;;;;;;;;;;24.17;62.18;99442.63;2067330;28;19914;-47
2022/06/24 04:05:24;;;;;;;;;;;;;;;24.17;62.27;99441.81;2069057;28;19917;-49
2022/06/24 04:06:24;;;;;;;;;;;;;;;24.15;62.13;99436.78;2067485;28;19975;-49
2022/06/24 04:07:24;;;;;;;;;;;;;;;24.14;62.46;99435.22;2063976;28;19917;-49
2022/06/24 04:08:25;;;;;;;;;;;;;;;24.14;62.29;99440.75;2064425;28;19920;-49
2022/06/24 04:09:25;;;;;;;;;;;;;;;24.15;62.69;99445.06;2065624;28;20717;-49
2022/06/24 04:10:28;;;;;;;;;;;;;;;24.14;63.10;99446.28;2065205;28;19990;-50
2022/06/24 04:11:28;;;;;;;;;;;;;;;24.15;63.17;99439.53;2061860;28;20202;-48
2022/06/24 04:12:29;;;;;;;;;;;;;;;24.14;62.69;99443.53;2066170;28;20207;-47
2022/06/24 04:13:29;;;;;;;;;;;;;;;24.14;63.22;99448.28;2063252;28;19909;-48
2022/06/24 04:15:49;;;;;;;;;;;;;;;24.14;63.04;99459.34;2064385;28;19917;-51
2022/06/24 04:16:50;;;;;;;;;;;;;;;24.14;63.01;99462.13;2059888;28;20301;-47
2022/06/24 04:17:50;;;;;;;;;;;;;;;24.14;63.23;99462.91;2063315;28;19917;-48
2022/06/24 04:18:50;;;;;;;;;;;;;;;24.14;63.21;99465.66;2066873;28;19923;-51
2022/06/24 04:19:52;;;;;;;;;;;;;;;24.13;62.92;99466.88;2063884;28;19944;-51
2022/06/24 04:20:53;;;;;;;;;;;;;;;24.14;62.84;99462.91;2067010;28;19917;-48
2022/06/24 04:21:53;;;;;;;;;;;;;;;24.15;62.75;99456.13;2064538;28;19948;-48
2022/06/24 04:22:53;;;;;;;;;;;;;;;24.13;62.70;99447.53;2062004;28;19910;-48
2022/06/24 04:23:54;;;;;;;;;;;;;;;24.13;62.81;99449.50;2067811;28;19916;-48
2022/06/24 04:24:54;;;;;;;;;;;;;;;24.14;62.78;99443.53;2064356;28;20194;-48
2022/06/24 04:25:54;;;;;;;;;;;;;;;24.12;63.22;99450.75;2062853;28;20013;-49
2022/06/24 04:26:55;;;;;;;;;;;;;;;24.11;62.98;99438.91;2060071;28;19997;-48
2022/06/24 04:27:55;;;;;;;;;;;;;;;24.09;63.18;99437.84;2060957;28;20185;-48
2022/06/24 04:28:55;;;;;;;;;;;;;;;24.10;63.16;99437.38;2060897;28;19909;-48
2022/06/24 04:30:00;;;;;;;;;;;;;;;24.10;63.02;99436.63;2061623;28;20015;-51
2022/06/24 04:31:00;;;;;;;;;;;;;;;24.10;63.04;99436.63;2063938;28;19932;-50
2022/06/24 04:32:01;;;;;;;;;;;;;;;24.10;63.46;99442.94;2066854;28;20015;-49
2022/06/24 04:33:01;;;;;;;;;;;;;;;24.09;63.58;99441.38;2065666;28;19932;-50
2022/06/24 04:34:02;;;;;;;;;;;;;;;24.08;63.25;99445.38;2071603;28;20634;-51
2022/06/24 04:35:03;;;;;;;;;;;;;;;24.10;63.21;99442.16;2069959;28;19943;-48
2022/06/24 04:36:09;;;;;;;;;;;;;;;24.08;63.32;99437.06;2060398;28;19922;-48
2022/06/24 04:37:09;;;;;;;;;;;;;;;24.05;63.23;99434.47;2065007;28;20374;-50
2022/06/24 04:38:09;;;;;;;;;;;;;;;24.05;62.95;99432.47;2061089;28;19918;-48
2022/06/24 04:39:09;;;;;;;;;;;;;;;24.02;63.00;99427.84;2065970;28;19925;-50
2022/06/24 04:40:11;;;;;;;;;;;;;;;24.04;63.11;99421.88;2062862;28;19952;-48
2022/06/24 04:41:16;;;;;;;;;;;;;;;24.02;63.10;99422.31;2062196;28;20653;-47
2022/06/24 04:42:17;;;;;;;;;;;;;;;24.03;62.98;99421.09;2064064;28;19981;-49
2022/06/24 04:43:17;;;;;;;;;;;;;;;24.02;62.82;99407.72;2062664;28;19924;-51
2022/06/24 04:44:17;;;;;;;;;;;;;;;24.04;63.12;99422.63;2066055;28;19918;-48
2022/06/24 04:45:18;;;;;;;;;;;;;;;23.99;63.05;99410.19;2061060;28;19917;-48
2022/06/24 04:46:18;;;;;;;;;;;;;;;23.99;63.33;99406.66;2063854;28;19917;-52
2022/06/24 04:47:19;;;;;;;;;;;;;;;24.00;62.94;99406.19;2068322;28;20111;-49
2022/06/24 04:48:19;;;;;;;;;;;;;;;24.01;62.81;99401.41;2063046;28;19928;-49
2022/06/24 04:49:19;;;;;;;;;;;;;;;24.04;62.77;99406.03;2061725;28;19917;-47
2022/06/24 04:50:20;;;;;;;;;;;;;;;24.03;63.08;99410.03;2063442;28;19925;-48
2022/06/24 04:51:20;;;;;;;;;;;;;;;24.06;62.66;99414.63;2062956;28;19914;-48
2022/06/24 04:52:21;;;;;;;;;;;;;;;24.06;62.97;99402.81;2058257;28;20367;-48
2022/06/24 04:53:21;;;;;;;;;;;;;;;24.06;62.73;99414.63;2061312;28;20315;-50
2022/06/24 04:54:21;;;;;;;;;;;;;;;24.03;62.91;99409.25;2067150;28;20283;-48
2022/06/24 04:55:22;;;;;;;;;;;;;;;24.05;62.62;99410.34;2069492;28;19940;-49
2022/06/24 04:56:22;;;;;;;;;;;;;;;24.06;62.65;99416.66;2065357;28;20419;-49
2022/06/24 04:57:22;;;;;;;;;;;;;;;24.08;62.49;99433.53;2062994;28;19917;-48
2022/06/24 04:58:22;;;;;;;;;;;;;;;24.08;62.28;99442.59;2065357;28;19959;-49
2022/06/24 04:59:23;;;;;;;;;;;;;;;24.08;62.39;99459.22;2063861;28;20501;-50
2022/06/24 05:00:23;;;;;;;;;;;;;;;24.05;62.45;99468.44;2063760;28;20520;-52
2022/06/24 05:01:24;;;;;;;;;;;;;;;24.07;62.59;99481.78;2057994;28;19947;-50
2022/06/24 05:02:24;;;;;;;;;;;;;;;24.05;62.65;99482.28;2063995;28;19947;-50
2022/06/24 05:03:24;;;;;;;;;;;;;;;24.04;62.86;99477.97;2064095;28;20325;-51
2022/06/24 05:04:25;;;;;;;;;;;;;;;24.05;62.77;99473.97;2064377;28;20724;-49
2022/06/24 05:05:25;;;;;;;;;;;;;;;24.04;63.39;99466.91;2065067;28;19917;-48
2022/06/24 05:06:25;;;;;;;;;;;;;;;24.02;63.38;99452.75;2067510;28;19913;-49
2022/06/24 05:07:25;;;;;;;;;;;;;;;24.00;63.29;99427.56;2066077;28;19979;-48
2022/06/24 05:08:26;;;;;;;;;;;;;;;23.98;62.89;99410.66;2066711;28;20645;-47
2022/06/24 05:09:26;;;;;;;;;;;;;;;23.97;63.05;99407.13;2065262;28;20387;-48
2022/06/24 05:10:26;;;;;;;;;;;;;;;23.97;62.67;99417.41;2066994;28;19956;-50
2022/06/24 05:11:26;;;;;;;;;;;;;;;23.98;62.78;99424.47;2063708;28;20018;-47
2022/06/24 05:12:27;;;;;;;;;;;;;;;23.98;63.02;99416.19;2067365;28;19925;-49
2022/06/24 05:13:27;;;;;;;;;;;;;;;23.99;63.20;99426.78;2065621;28;19924;-47
2022/06/24 05:14:30;;;;;;;;;;;;;;;23.99;63.02;99418.50;2067273;28;19925;-48
2022/06/24 05:15:31;;;;;;;;;;;;;;;23.98;63.10;99422.50;2069214;28;20274;-51
2022/06/24 05:16:31;;;;;;;;;;;;;;;23.99;63.01;99421.25;2066475;28;19920;-50
2022/06/24 05:17:32;;;;;;;;;;;;;;;23.99;62.79;99414.97;2067960;28;19909;-52
2022/06/24 05:18:32;;;;;;;;;;;;;;;23.97;63.23;99417.41;2067567;28;20362;-51
2022/06/24 05:19:32;;;;;;;;;;;;;;;23.98;63.05;99407.88;2068620;28;19914;-48
2022/06/24 05:20:33;;;;;;;;;;;;;;;23.99;62.97;99420.50;2063766;28;19960;-47
2022/06/24 05:21:33;;;;;;;;;;;;;;;23.99;62.78;99410.19;2067150;28;19984;-48
2022/06/24 05:22:34;;;;;;;;;;;;;;;24.00;62.73;99405.44;2064913;28;19913;-51
2022/06/24 05:23:34;;;;;;;;;;;;;;;24.02;62.71;99407.72;2065690;28;20144;-48
2022/06/24 05:24:35;;;;;;;;;;;;;;;24.02;62.64;99404.97;2064030;28;19914;-48